createdAt,value
2017-01-05T00:00:34.834Z,1012.3
2017-01-05T00:01:15.431Z,1012.27
2017-01-05T00:01:56.004Z,1012.28
2017-01-05T00:02:36.611Z,1012.3
2017-01-05T00:03:17.217Z,1012.25
2017-01-05T00:03:57.811Z,1012.19
2017-01-05T00:04:38.426Z,1012.23
2017-01-05T00:05:19.020Z,1012.21
2017-01-05T00:05:59.615Z,1012.21
2017-01-05T00:06:40.197Z,1012.16
2017-01-05T00:07:20.781Z,1012.18
2017-01-05T00:08:01.378Z,1012.15
2017-01-05T00:08:41.988Z,1012.18
2017-01-05T00:09:22.589Z,1012.2
2017-01-05T00:10:04.000Z,1012.18
2017-01-05T00:10:43.784Z,1012.2
2017-01-05T00:11:24.370Z,1012.14
2017-01-05T00:12:04.957Z,1012.11
2017-01-05T00:12:45.541Z,1012.08
2017-01-05T00:13:26.136Z,1012.08
2017-01-05T00:14:06.708Z,1012.14
2017-01-05T00:14:47.284Z,1012.1
2017-01-05T00:15:27.894Z,1012.14
2017-01-05T00:16:08.470Z,1012.12
2017-01-05T00:16:49.056Z,1012.09
2017-01-05T00:17:29.649Z,1012.11
2017-01-05T00:18:10.226Z,1012.11
2017-01-05T00:18:50.812Z,1012.14
2017-01-05T00:19:31.417Z,1012.12
2017-01-05T00:20:11.998Z,1012.1
2017-01-05T00:20:52.601Z,1012.09
2017-01-05T00:21:33.179Z,1012.07
2017-01-05T00:22:13.764Z,1012.07
2017-01-05T00:22:54.363Z,1012.1
2017-01-05T00:23:34.957Z,1012.14
2017-01-05T00:24:15.536Z,1012.1
2017-01-05T00:24:56.124Z,1012.09
2017-01-05T00:25:36.730Z,1012.06
2017-01-05T00:26:17.314Z,1012.11
2017-01-05T00:26:57.888Z,1012.15
2017-01-05T00:27:38.488Z,1012.14
2017-01-05T00:28:19.079Z,1012.16
2017-01-05T00:28:59.670Z,1012.17
2017-01-05T00:29:41.097Z,1012.13
2017-01-05T00:30:21.683Z,1012.12
2017-01-05T00:31:02.261Z,1012.1
2017-01-05T00:31:42.848Z,1012.08
2017-01-05T00:32:23.441Z,1012.08
2017-01-05T00:33:04.023Z,1012.11
2017-01-05T00:33:44.605Z,1012.13
2017-01-05T00:34:25.181Z,1012.09
2017-01-05T00:35:05.775Z,1012.1
2017-01-05T00:35:46.362Z,1012.08
2017-01-05T00:36:26.951Z,1012.1
2017-01-05T00:37:07.547Z,1012.04
2017-01-05T00:37:48.131Z,1012.06
2017-01-05T00:38:28.725Z,1012.05
2017-01-05T00:39:09.332Z,1012.05
2017-01-05T00:39:49.931Z,1012.04
2017-01-05T00:40:30.518Z,1011.99
2017-01-05T00:41:11.104Z,1011.95
2017-01-05T00:41:51.698Z,1012
2017-01-05T00:42:32.289Z,1011.97
2017-01-05T00:43:12.894Z,1012
2017-01-05T00:43:53.503Z,1012.02
2017-01-05T00:44:34.096Z,1012.01
2017-01-05T00:45:14.696Z,1012.01
2017-01-05T00:45:55.308Z,1012
2017-01-05T00:46:35.894Z,1012.01
2017-01-05T00:47:16.485Z,1011.98
2017-01-05T00:47:57.090Z,1011.97
2017-01-05T00:48:37.671Z,1011.96
2017-01-05T00:49:18.261Z,1011.88
2017-01-05T00:49:58.855Z,1011.88
2017-01-05T00:50:39.448Z,1011.91
2017-01-05T00:51:20.044Z,1011.95
2017-01-05T00:52:00.657Z,1011.97
2017-01-05T00:52:41.233Z,1011.95
2017-01-05T00:53:21.829Z,1011.92
2017-01-05T00:54:02.423Z,1011.91
2017-01-05T00:54:43.005Z,1011.92
2017-01-05T00:55:23.616Z,1011.93
2017-01-05T00:56:04.206Z,1011.9
2017-01-05T00:56:44.800Z,1011.88
2017-01-05T00:57:25.381Z,1011.83
2017-01-05T00:58:05.971Z,1011.85
2017-01-05T00:58:46.562Z,1011.83
2017-01-05T00:59:27.143Z,1011.89
2017-01-05T01:00:07.721Z,1011.88
2017-01-05T01:00:48.299Z,1011.87
2017-01-05T01:01:28.883Z,1011.86
2017-01-05T01:02:09.469Z,1011.8
2017-01-05T01:02:50.065Z,1011.82
2017-01-05T01:03:30.647Z,1011.86
2017-01-05T01:04:11.236Z,1011.91
2017-01-05T01:04:51.821Z,1011.94
2017-01-05T01:05:32.411Z,1011.88
2017-01-05T01:06:13.008Z,1011.89
2017-01-05T01:06:54.530Z,1011.88
2017-01-05T01:07:34.189Z,1011.87
2017-01-05T01:08:14.774Z,1011.87
2017-01-05T01:08:55.370Z,1011.87
2017-01-05T01:09:35.948Z,1011.83
2017-01-05T01:10:16.547Z,1011.89
2017-01-05T01:10:57.129Z,1011.87
2017-01-05T01:11:37.713Z,1011.87
2017-01-05T01:12:19.031Z,1011.88
2017-01-05T01:12:58.896Z,1011.88
2017-01-05T01:13:39.482Z,1011.82
2017-01-05T01:14:20.066Z,1011.84
2017-01-05T01:15:00.651Z,1011.84
2017-01-05T01:15:41.245Z,1011.86
2017-01-05T01:16:21.828Z,1011.83
2017-01-05T01:17:02.407Z,1011.86
2017-01-05T01:17:42.994Z,1011.83
2017-01-05T01:18:23.580Z,1011.84
2017-01-05T01:19:04.160Z,1011.87
2017-01-05T01:19:44.744Z,1011.88
2017-01-05T01:20:25.354Z,1011.92
2017-01-05T01:21:05.945Z,1011.94
2017-01-05T01:21:46.538Z,1011.93
2017-01-05T01:22:27.113Z,1011.95
2017-01-05T01:23:07.708Z,1011.95
2017-01-05T01:23:48.295Z,1011.96
2017-01-05T01:24:28.873Z,1011.96
2017-01-05T01:25:09.456Z,1011.94
2017-01-05T01:25:50.054Z,1011.99
2017-01-05T01:26:30.627Z,1012
2017-01-05T01:27:11.217Z,1012.01
2017-01-05T01:27:51.818Z,1011.95
2017-01-05T01:28:32.421Z,1011.97
2017-01-05T01:29:13.015Z,1011.94
2017-01-05T01:29:53.622Z,1011.94
2017-01-05T01:30:34.201Z,1011.92
2017-01-05T01:31:14.793Z,1011.9
2017-01-05T01:31:55.385Z,1011.96
2017-01-05T01:32:35.982Z,1011.99
2017-01-05T01:33:16.568Z,1011.98
2017-01-05T01:33:57.162Z,1011.97
2017-01-05T01:34:37.732Z,1011.97
2017-01-05T01:35:18.323Z,1011.99
2017-01-05T01:35:58.916Z,1011.94
2017-01-05T01:36:39.492Z,1011.92
2017-01-05T01:37:20.074Z,1011.95
2017-01-05T01:38:00.671Z,1011.94
2017-01-05T01:38:41.257Z,1011.97
2017-01-05T01:39:21.855Z,1011.94
2017-01-05T01:40:02.493Z,1011.94
2017-01-05T01:40:43.085Z,1011.95
2017-01-05T01:41:23.676Z,1011.93
2017-01-05T01:42:04.273Z,1011.98
2017-01-05T01:42:44.855Z,1011.97
2017-01-05T01:43:25.444Z,1011.96
2017-01-05T01:44:06.065Z,1011.98
2017-01-05T01:44:46.646Z,1011.92
2017-01-05T01:45:27.231Z,1011.99
2017-01-05T01:46:07.814Z,1012.02
2017-01-05T01:46:48.401Z,1011.99
2017-01-05T01:47:28.986Z,1012
2017-01-05T01:48:09.581Z,1012.01
2017-01-05T01:48:50.174Z,1012.02
2017-01-05T01:49:30.758Z,1011.99
2017-01-05T01:50:11.349Z,1012.01
2017-01-05T01:50:51.940Z,1012
2017-01-05T01:51:32.534Z,1011.99
2017-01-05T01:52:13.115Z,1011.98
2017-01-05T01:52:53.721Z,1011.97
2017-01-05T01:53:34.302Z,1011.97
2017-01-05T01:54:14.896Z,1011.99
2017-01-05T01:54:55.498Z,1012
2017-01-05T01:55:36.079Z,1012.01
2017-01-05T01:56:16.676Z,1012
2017-01-05T01:56:57.262Z,1012.02
2017-01-05T01:57:37.854Z,1012.03
2017-01-05T01:58:18.439Z,1012.06
2017-01-05T01:58:59.028Z,1012.06
2017-01-05T01:59:39.615Z,1012.05
2017-01-05T02:00:20.197Z,1012.05
2017-01-05T02:01:00.774Z,1012.04
2017-01-05T02:01:41.370Z,1012.06
2017-01-05T02:02:21.964Z,1012.05
2017-01-05T02:03:02.551Z,1012.04
2017-01-05T02:03:43.132Z,1012.01
2017-01-05T02:04:23.715Z,1012.05
2017-01-05T02:05:04.300Z,1012.03
2017-01-05T02:05:44.886Z,1012.09
2017-01-05T02:06:25.470Z,1012.07
2017-01-05T02:07:06.055Z,1012.07
2017-01-05T02:07:46.651Z,1012.09
2017-01-05T02:08:27.229Z,1012.07
2017-01-05T02:09:07.840Z,1012.07
2017-01-05T02:09:48.422Z,1012.09
2017-01-05T02:10:28.997Z,1012.06
2017-01-05T02:11:09.594Z,1012.06
2017-01-05T02:11:50.182Z,1012.01
2017-01-05T02:12:30.770Z,1012.05
2017-01-05T02:13:11.364Z,1012.05
2017-01-05T02:13:51.948Z,1012.06
2017-01-05T02:14:32.534Z,1012.01
2017-01-05T02:15:13.113Z,1012.04
2017-01-05T02:15:53.715Z,1011.98
2017-01-05T02:16:34.295Z,1012.04
2017-01-05T02:17:14.884Z,1012.01
2017-01-05T02:17:55.471Z,1012.01
2017-01-05T02:18:36.049Z,1012.05
2017-01-05T02:19:16.628Z,1011.99
2017-01-05T02:19:57.216Z,1012.01
2017-01-05T02:20:37.830Z,1011.97
2017-01-05T02:21:18.409Z,1011.98
2017-01-05T02:21:59.011Z,1011.99
2017-01-05T02:22:39.584Z,1011.94
2017-01-05T02:23:20.183Z,1011.96
2017-01-05T02:24:00.796Z,1011.94
2017-01-05T02:24:41.386Z,1011.94
2017-01-05T02:25:21.988Z,1011.94
2017-01-05T02:26:02.586Z,1011.96
2017-01-05T02:26:43.177Z,1011.93
2017-01-05T02:27:23.758Z,1011.95
2017-01-05T02:28:04.348Z,1011.98
2017-01-05T02:28:44.954Z,1011.97
2017-01-05T02:29:25.548Z,1011.97
2017-01-05T02:30:06.150Z,1011.99
2017-01-05T02:30:46.750Z,1011.99
2017-01-05T02:31:27.362Z,1011.97
2017-01-05T02:32:07.951Z,1011.96
2017-01-05T02:32:48.549Z,1012.01
2017-01-05T02:33:29.152Z,1012
2017-01-05T02:34:09.742Z,1012
2017-01-05T02:34:50.318Z,1011.98
2017-01-05T02:35:30.906Z,1012
2017-01-05T02:36:11.509Z,1012
2017-01-05T02:36:52.091Z,1011.97
2017-01-05T02:37:32.671Z,1011.94
2017-01-05T02:38:13.251Z,1011.96
2017-01-05T02:38:53.869Z,1011.92
2017-01-05T02:39:34.459Z,1011.9
2017-01-05T02:40:15.052Z,1011.86
2017-01-05T02:40:55.646Z,1011.85
2017-01-05T02:41:36.231Z,1011.84
2017-01-05T02:42:16.813Z,1011.84
2017-01-05T02:42:57.414Z,1011.88
2017-01-05T02:43:37.988Z,1011.85
2017-01-05T02:44:18.581Z,1011.86
2017-01-05T02:44:59.162Z,1011.89
2017-01-05T02:45:39.745Z,1011.86
2017-01-05T02:46:20.338Z,1011.88
2017-01-05T02:47:00.937Z,1011.86
2017-01-05T02:47:41.520Z,1011.87
2017-01-05T02:48:22.135Z,1011.83
2017-01-05T02:49:02.726Z,1011.81
2017-01-05T02:49:43.322Z,1011.78
2017-01-05T02:50:23.906Z,1011.82
2017-01-05T02:51:04.502Z,1011.78
2017-01-05T02:51:45.097Z,1011.8
2017-01-05T02:52:25.703Z,1011.75
2017-01-05T02:53:06.302Z,1011.78
2017-01-05T02:53:46.886Z,1011.75
2017-01-05T02:54:27.501Z,1011.75
2017-01-05T02:55:08.086Z,1011.75
2017-01-05T02:55:48.688Z,1011.75
2017-01-05T02:56:29.271Z,1011.75
2017-01-05T02:57:09.862Z,1011.8
2017-01-05T02:57:50.457Z,1011.75
2017-01-05T02:58:31.048Z,1011.75
2017-01-05T02:59:11.647Z,1011.73
2017-01-05T02:59:52.251Z,1011.7
2017-01-05T03:00:32.839Z,1011.74
2017-01-05T03:01:13.411Z,1011.71
2017-01-05T03:01:54.019Z,1011.67
2017-01-05T03:02:34.618Z,1011.67
2017-01-05T03:03:15.214Z,1011.65
2017-01-05T03:03:55.806Z,1011.65
2017-01-05T03:04:36.403Z,1011.64
2017-01-05T03:05:16.982Z,1011.65
2017-01-05T03:05:57.577Z,1011.62
2017-01-05T03:06:38.171Z,1011.62
2017-01-05T03:07:18.777Z,1011.6
2017-01-05T03:07:59.390Z,1011.57
2017-01-05T03:08:39.988Z,1011.53
2017-01-05T03:09:20.576Z,1011.53
2017-01-05T03:10:01.167Z,1011.5
2017-01-05T03:10:41.745Z,1011.52
2017-01-05T03:11:22.345Z,1011.51
2017-01-05T03:12:02.933Z,1011.45
2017-01-05T03:12:43.525Z,1011.47
2017-01-05T03:13:24.117Z,1011.46
2017-01-05T03:14:04.704Z,1011.48
2017-01-05T03:14:45.296Z,1011.47
2017-01-05T03:15:25.894Z,1011.56
2017-01-05T03:16:06.487Z,1011.53
2017-01-05T03:16:47.076Z,1011.51
2017-01-05T03:17:27.659Z,1011.54
2017-01-05T03:18:08.252Z,1011.49
2017-01-05T03:18:48.842Z,1011.51
2017-01-05T03:19:29.442Z,1011.47
2017-01-05T03:20:10.020Z,1011.44
2017-01-05T03:20:50.619Z,1011.42
2017-01-05T03:21:31.201Z,1011.44
2017-01-05T03:22:11.794Z,1011.44
2017-01-05T03:22:52.371Z,1011.4
2017-01-05T03:23:32.952Z,1011.4
2017-01-05T03:24:13.570Z,1011.37
2017-01-05T03:24:54.150Z,1011.33
2017-01-05T03:25:34.733Z,1011.32
2017-01-05T03:26:15.324Z,1011.28
2017-01-05T03:26:55.903Z,1011.31
2017-01-05T03:27:36.505Z,1011.33
2017-01-05T03:28:17.090Z,1011.32
2017-01-05T03:28:57.668Z,1011.32
2017-01-05T03:29:38.257Z,1011.32
2017-01-05T03:30:18.864Z,1011.31
2017-01-05T03:30:59.465Z,1011.35
2017-01-05T03:31:40.050Z,1011.34
2017-01-05T03:32:20.640Z,1011.35
2017-01-05T03:33:01.216Z,1011.32
2017-01-05T03:33:41.802Z,1011.34
2017-01-05T03:34:22.387Z,1011.36
2017-01-05T03:35:02.964Z,1011.32
2017-01-05T03:35:43.547Z,1011.32
2017-01-05T03:36:24.122Z,1011.32
2017-01-05T03:37:04.705Z,1011.31
2017-01-05T03:37:45.282Z,1011.3
2017-01-05T03:38:25.873Z,1011.3
2017-01-05T03:39:06.461Z,1011.29
2017-01-05T03:39:47.041Z,1011.3
2017-01-05T03:40:27.620Z,1011.27
2017-01-05T03:41:08.226Z,1011.25
2017-01-05T03:41:48.812Z,1011.23
2017-01-05T03:42:29.402Z,1011.25
2017-01-05T03:43:09.989Z,1011.22
2017-01-05T03:43:50.572Z,1011.23
2017-01-05T03:44:31.170Z,1011.21
2017-01-05T03:45:11.749Z,1011.21
2017-01-05T03:45:52.346Z,1011.2
2017-01-05T03:46:32.937Z,1011.17
2017-01-05T03:47:13.516Z,1011.15
2017-01-05T03:47:54.107Z,1011.18
2017-01-05T03:48:34.699Z,1011.16
2017-01-05T03:49:15.299Z,1011.17
2017-01-05T03:49:55.886Z,1011.22
2017-01-05T03:50:36.466Z,1011.19
2017-01-05T03:51:17.056Z,1011.19
2017-01-05T03:51:57.643Z,1011.21
2017-01-05T03:52:38.227Z,1011.22
2017-01-05T03:53:18.807Z,1011.25
2017-01-05T03:53:59.407Z,1011.25
2017-01-05T03:54:39.999Z,1011.22
2017-01-05T03:55:20.586Z,1011.25
2017-01-05T03:56:01.167Z,1011.26
2017-01-05T03:56:41.748Z,1011.27
2017-01-05T03:57:22.349Z,1011.3
2017-01-05T03:58:02.925Z,1011.29
2017-01-05T03:58:43.512Z,1011.28
2017-01-05T03:59:24.108Z,1011.25
2017-01-05T04:00:04.690Z,1011.26
2017-01-05T04:00:45.272Z,1011.28
2017-01-05T04:01:25.859Z,1011.29
2017-01-05T04:02:06.451Z,1011.31
2017-01-05T04:02:47.034Z,1011.29
2017-01-05T04:03:27.627Z,1011.28
2017-01-05T04:04:08.198Z,1011.28
2017-01-05T04:04:48.776Z,1011.26
2017-01-05T04:05:29.356Z,1011.26
2017-01-05T04:06:09.953Z,1011.23
2017-01-05T04:06:50.536Z,1011.26
2017-01-05T04:07:31.112Z,1011.25
2017-01-05T04:08:11.709Z,1011.21
2017-01-05T04:08:52.300Z,1011.23
2017-01-05T04:09:32.904Z,1011.19
2017-01-05T04:10:13.496Z,1011.24
2017-01-05T04:10:54.097Z,1011.19
2017-01-05T04:11:34.701Z,1011.23
2017-01-05T04:12:15.290Z,1011.22
2017-01-05T04:12:55.870Z,1011.2
2017-01-05T04:13:36.457Z,1011.18
2017-01-05T04:14:17.052Z,1011.19
2017-01-05T04:14:57.670Z,1011.22
2017-01-05T04:15:38.264Z,1011.2
2017-01-05T04:16:18.864Z,1011.2
2017-01-05T04:16:59.461Z,1011.23
2017-01-05T04:17:40.042Z,1011.24
2017-01-05T04:18:20.623Z,1011.24
2017-01-05T04:19:01.237Z,1011.26
2017-01-05T04:19:41.817Z,1011.21
2017-01-05T04:20:22.420Z,1011.22
2017-01-05T04:21:03.010Z,1011.21
2017-01-05T04:21:43.591Z,1011.18
2017-01-05T04:22:24.187Z,1011.15
2017-01-05T04:23:04.778Z,1011.13
2017-01-05T04:23:45.366Z,1011.08
2017-01-05T04:24:25.958Z,1011.1
2017-01-05T04:25:06.532Z,1011.11
2017-01-05T04:25:47.119Z,1011.12
2017-01-05T04:26:27.698Z,1011.08
2017-01-05T04:27:08.290Z,1011.07
2017-01-05T04:27:48.874Z,1011.05
2017-01-05T04:28:29.450Z,1011.03
2017-01-05T04:29:10.033Z,1011
2017-01-05T04:29:50.631Z,1011.02
2017-01-05T04:30:31.202Z,1011.02
2017-01-05T04:31:11.798Z,1011
2017-01-05T04:31:52.388Z,1011.05
2017-01-05T04:32:32.993Z,1011
2017-01-05T04:33:13.588Z,1011
2017-01-05T04:33:54.162Z,1011.02
2017-01-05T04:34:34.770Z,1010.97
2017-01-05T04:35:15.355Z,1010.99
2017-01-05T04:35:56.731Z,1010.98
2017-01-05T04:36:37.323Z,1010.97
2017-01-05T04:37:17.902Z,1011
2017-01-05T04:37:58.480Z,1010.99
2017-01-05T04:38:39.096Z,1011.01
2017-01-05T04:39:19.683Z,1010.94
2017-01-05T04:40:00.277Z,1010.98
2017-01-05T04:40:40.870Z,1010.98
2017-01-05T04:41:21.463Z,1011
2017-01-05T04:42:02.071Z,1010.97
2017-01-05T04:42:42.656Z,1010.97
2017-01-05T04:43:23.247Z,1010.97
2017-01-05T04:44:03.838Z,1010.97
2017-01-05T04:44:44.421Z,1010.95
2017-01-05T04:45:25.036Z,1010.94
2017-01-05T04:46:05.621Z,1010.94
2017-01-05T04:46:46.195Z,1010.97
2017-01-05T04:47:26.789Z,1010.97
2017-01-05T04:48:07.371Z,1010.97
2017-01-05T04:48:47.965Z,1010.94
2017-01-05T04:49:28.563Z,1010.95
2017-01-05T04:50:09.150Z,1010.96
2017-01-05T04:50:49.750Z,1010.96
2017-01-05T04:51:30.343Z,1010.97
2017-01-05T04:52:10.938Z,1010.93
2017-01-05T04:52:51.541Z,1011.01
2017-01-05T04:53:32.123Z,1010.97
2017-01-05T04:54:12.707Z,1010.96
2017-01-05T04:54:53.302Z,1010.96
2017-01-05T04:55:33.893Z,1010.96
2017-01-05T04:56:14.482Z,1010.95
2017-01-05T04:56:55.068Z,1010.97
2017-01-05T04:57:35.652Z,1010.93
2017-01-05T04:58:16.227Z,1010.91
2017-01-05T04:58:56.825Z,1010.91
2017-01-05T04:59:37.412Z,1010.93
2017-01-05T05:00:17.992Z,1010.9
2017-01-05T05:00:58.584Z,1010.91
2017-01-05T05:01:39.168Z,1010.92
2017-01-05T05:02:19.752Z,1010.91
2017-01-05T05:03:00.343Z,1010.93
2017-01-05T05:03:40.935Z,1010.88
2017-01-05T05:04:21.537Z,1010.89
2017-01-05T05:05:02.132Z,1010.91
2017-01-05T05:05:42.714Z,1010.92
2017-01-05T05:06:23.296Z,1010.9
2017-01-05T05:07:03.877Z,1010.91
2017-01-05T05:07:44.467Z,1010.88
2017-01-05T05:08:25.047Z,1010.88
2017-01-05T05:09:05.632Z,1010.93
2017-01-05T05:09:46.231Z,1010.91
2017-01-05T05:10:26.825Z,1010.96
2017-01-05T05:11:07.430Z,1010.94
2017-01-05T05:11:48.017Z,1010.94
2017-01-05T05:12:28.613Z,1010.94
2017-01-05T05:13:09.207Z,1010.91
2017-01-05T05:13:49.793Z,1010.9
2017-01-05T05:14:30.381Z,1010.93
2017-01-05T05:15:10.972Z,1010.94
2017-01-05T05:15:51.582Z,1010.96
2017-01-05T05:16:32.168Z,1010.9
2017-01-05T05:17:12.742Z,1010.9
2017-01-05T05:17:53.340Z,1010.93
2017-01-05T05:18:33.931Z,1010.95
2017-01-05T05:19:14.515Z,1010.94
2017-01-05T05:19:55.104Z,1010.95
2017-01-05T05:20:35.689Z,1010.99
2017-01-05T05:21:16.276Z,1010.93
2017-01-05T05:21:56.850Z,1010.98
2017-01-05T05:22:37.441Z,1010.94
2017-01-05T05:23:18.027Z,1010.9
2017-01-05T05:23:58.620Z,1010.91
2017-01-05T05:24:39.215Z,1010.95
2017-01-05T05:25:19.803Z,1010.99
2017-01-05T05:26:00.387Z,1011
2017-01-05T05:26:40.981Z,1011
2017-01-05T05:27:21.570Z,1011.03
2017-01-05T05:28:02.158Z,1010.98
2017-01-05T05:28:42.740Z,1011
2017-01-05T05:29:23.329Z,1011.01
2017-01-05T05:30:03.913Z,1010.99
2017-01-05T05:30:44.495Z,1011.02
2017-01-05T05:31:25.076Z,1011.01
2017-01-05T05:32:05.675Z,1011
2017-01-05T05:32:46.267Z,1011.01
2017-01-05T05:33:26.852Z,1010.96
2017-01-05T05:34:07.453Z,1010.96
2017-01-05T05:34:48.038Z,1010.97
2017-01-05T05:35:28.622Z,1010.98
2017-01-05T05:36:09.208Z,1010.99
2017-01-05T05:36:49.789Z,1011
2017-01-05T05:37:30.373Z,1011
2017-01-05T05:38:10.955Z,1010.99
2017-01-05T05:38:51.545Z,1011.02
2017-01-05T05:39:32.149Z,1011.05
2017-01-05T05:40:12.742Z,1011.04
2017-01-05T05:40:53.318Z,1011.05
2017-01-05T05:41:33.915Z,1011.06
2017-01-05T05:42:14.502Z,1011.04
2017-01-05T05:42:55.095Z,1011.05
2017-01-05T05:43:35.679Z,1011.05
2017-01-05T05:44:16.261Z,1011.06
2017-01-05T05:44:56.867Z,1011.11
2017-01-05T05:45:37.456Z,1011.1
2017-01-05T05:46:18.070Z,1011.1
2017-01-05T05:46:58.670Z,1011.09
2017-01-05T05:47:39.278Z,1011.08
2017-01-05T05:48:19.872Z,1011.07
2017-01-05T05:49:00.459Z,1011.09
2017-01-05T05:49:41.048Z,1011.09
2017-01-05T05:50:21.636Z,1011.13
2017-01-05T05:51:02.224Z,1011.13
2017-01-05T05:51:42.800Z,1011.14
2017-01-05T05:52:23.399Z,1011.14
2017-01-05T05:53:03.992Z,1011.12
2017-01-05T05:53:44.584Z,1011.13
2017-01-05T05:54:25.179Z,1011.18
2017-01-05T05:55:05.755Z,1011.18
2017-01-05T05:55:46.350Z,1011.2
2017-01-05T05:56:26.948Z,1011.17
2017-01-05T05:57:07.530Z,1011.18
2017-01-05T05:57:48.107Z,1011.19
2017-01-05T05:58:28.702Z,1011.17
2017-01-05T05:59:09.297Z,1011.21
2017-01-05T05:59:49.892Z,1011.25
2017-01-05T06:00:30.472Z,1011.25
2017-01-05T06:01:11.066Z,1011.25
2017-01-05T06:01:51.653Z,1011.27
2017-01-05T06:02:32.246Z,1011.28
2017-01-05T06:03:12.840Z,1011.29
2017-01-05T06:03:53.421Z,1011.29
2017-01-05T06:04:34.009Z,1011.31
2017-01-05T06:05:14.593Z,1011.27
2017-01-05T06:05:55.182Z,1011.31
2017-01-05T06:06:35.769Z,1011.32
2017-01-05T06:07:16.372Z,1011.32
2017-01-05T06:07:56.956Z,1011.32
2017-01-05T06:08:37.558Z,1011.36
2017-01-05T06:09:18.145Z,1011.34
2017-01-05T06:09:58.727Z,1011.34
2017-01-05T06:10:39.301Z,1011.39
2017-01-05T06:11:19.885Z,1011.34
2017-01-05T06:12:00.503Z,1011.41
2017-01-05T06:12:41.100Z,1011.37
2017-01-05T06:13:21.680Z,1011.37
2017-01-05T06:14:02.266Z,1011.36
2017-01-05T06:14:42.857Z,1011.4
2017-01-05T06:15:23.453Z,1011.38
2017-01-05T06:16:04.044Z,1011.41
2017-01-05T06:16:44.658Z,1011.39
2017-01-05T06:17:25.231Z,1011.47
2017-01-05T06:18:05.815Z,1011.49
2017-01-05T06:18:46.392Z,1011.46
2017-01-05T06:19:26.975Z,1011.5
2017-01-05T06:20:07.558Z,1011.48
2017-01-05T06:20:48.142Z,1011.45
2017-01-05T06:21:28.719Z,1011.52
2017-01-05T06:22:09.306Z,1011.49
2017-01-05T06:22:49.898Z,1011.48
2017-01-05T06:23:30.487Z,1011.53
2017-01-05T06:24:11.074Z,1011.52
2017-01-05T06:24:51.653Z,1011.54
2017-01-05T06:25:32.242Z,1011.55
2017-01-05T06:26:12.849Z,1011.6
2017-01-05T06:26:53.439Z,1011.57
2017-01-05T06:27:34.047Z,1011.6
2017-01-05T06:28:14.660Z,1011.6
2017-01-05T06:28:55.248Z,1011.63
2017-01-05T06:29:35.837Z,1011.62
2017-01-05T06:30:16.418Z,1011.66
2017-01-05T06:30:57.007Z,1011.72
2017-01-05T06:31:37.606Z,1011.65
2017-01-05T06:32:18.192Z,1011.64
2017-01-05T06:32:58.763Z,1011.64
2017-01-05T06:33:39.348Z,1011.67
2017-01-05T06:34:19.943Z,1011.63
2017-01-05T06:35:00.521Z,1011.66
2017-01-05T06:35:41.111Z,1011.66
2017-01-05T06:36:21.713Z,1011.66
2017-01-05T06:37:02.305Z,1011.62
2017-01-05T06:37:42.908Z,1011.65
2017-01-05T06:38:23.490Z,1011.64
2017-01-05T06:39:04.071Z,1011.61
2017-01-05T06:39:44.660Z,1011.68
2017-01-05T06:40:25.238Z,1011.7
2017-01-05T06:41:05.819Z,1011.69
2017-01-05T06:41:46.405Z,1011.73
2017-01-05T06:42:26.991Z,1011.73
2017-01-05T06:43:07.574Z,1011.76
2017-01-05T06:43:48.168Z,1011.74
2017-01-05T06:44:28.749Z,1011.75
2017-01-05T06:45:09.337Z,1011.76
2017-01-05T06:45:49.926Z,1011.78
2017-01-05T06:46:30.520Z,1011.79
2017-01-05T06:47:11.099Z,1011.78
2017-01-05T06:47:51.678Z,1011.78
2017-01-05T06:48:32.282Z,1011.8
2017-01-05T06:49:12.859Z,1011.82
2017-01-05T06:49:53.450Z,1011.8
2017-01-05T06:50:34.056Z,1011.77
2017-01-05T06:51:14.643Z,1011.81
2017-01-05T06:51:55.245Z,1011.76
2017-01-05T06:52:35.840Z,1011.78
2017-01-05T06:53:16.430Z,1011.79
2017-01-05T06:53:57.027Z,1011.81
2017-01-05T06:54:37.624Z,1011.8
2017-01-05T06:55:18.222Z,1011.82
2017-01-05T06:55:58.811Z,1011.84
2017-01-05T06:56:39.414Z,1011.86
2017-01-05T06:57:19.988Z,1011.88
2017-01-05T06:58:00.567Z,1011.88
2017-01-05T06:58:41.163Z,1011.94
2017-01-05T06:59:21.761Z,1011.88
2017-01-05T07:00:02.344Z,1011.9
2017-01-05T07:00:42.924Z,1011.94
2017-01-05T07:01:23.517Z,1011.95
2017-01-05T07:02:04.097Z,1011.93
2017-01-05T07:02:44.681Z,1011.97
2017-01-05T07:03:25.264Z,1011.98
2017-01-05T07:04:05.868Z,1011.97
2017-01-05T07:04:46.447Z,1012
2017-01-05T07:05:27.039Z,1011.97
2017-01-05T07:06:07.650Z,1011.94
2017-01-05T07:06:48.241Z,1012.01
2017-01-05T07:07:28.846Z,1012.02
2017-01-05T07:08:09.435Z,1012.05
2017-01-05T07:08:50.014Z,1012.01
2017-01-05T07:09:30.596Z,1012.06
2017-01-05T07:10:11.182Z,1012.06
2017-01-05T07:10:51.786Z,1012.04
2017-01-05T07:11:32.392Z,1012.05
2017-01-05T07:12:12.983Z,1012
2017-01-05T07:12:53.571Z,1012.01
2017-01-05T07:13:34.157Z,1012
2017-01-05T07:14:14.742Z,1011.98
2017-01-05T07:14:55.321Z,1012.02
2017-01-05T07:15:35.913Z,1012.01
2017-01-05T07:16:16.513Z,1011.99
2017-01-05T07:16:57.106Z,1011.98
2017-01-05T07:17:37.702Z,1012.01
2017-01-05T07:18:18.305Z,1011.98
2017-01-05T07:18:58.907Z,1011.99
2017-01-05T07:19:39.507Z,1012.02
2017-01-05T07:20:20.094Z,1012.01
2017-01-05T07:21:00.695Z,1011.98
2017-01-05T07:21:41.291Z,1012.01
2017-01-05T07:22:21.885Z,1012
2017-01-05T07:23:02.471Z,1011.96
2017-01-05T07:23:43.079Z,1011.99
2017-01-05T07:24:23.678Z,1011.99
2017-01-05T07:25:04.297Z,1011.99
2017-01-05T07:25:44.894Z,1012
2017-01-05T07:26:25.484Z,1012.03
2017-01-05T07:27:06.095Z,1012.05
2017-01-05T07:27:46.701Z,1012.01
2017-01-05T07:28:27.291Z,1012.02
2017-01-05T07:29:07.891Z,1011.99
2017-01-05T07:29:48.489Z,1012.02
2017-01-05T07:30:29.070Z,1012.03
2017-01-05T07:31:09.688Z,1012.03
2017-01-05T07:31:50.272Z,1012.04
2017-01-05T07:32:30.859Z,1012.02
2017-01-05T07:33:11.468Z,1012.03
2017-01-05T07:33:52.056Z,1012.02
2017-01-05T07:34:32.651Z,1012.03
2017-01-05T07:35:13.259Z,1012.04
2017-01-05T07:35:53.845Z,1012.06
2017-01-05T07:36:34.447Z,1012.05
2017-01-05T07:37:15.035Z,1012.07
2017-01-05T07:37:55.634Z,1012.09
2017-01-05T07:38:36.227Z,1012.08
2017-01-05T07:39:16.797Z,1012.08
2017-01-05T07:39:57.398Z,1012.09
2017-01-05T07:40:37.996Z,1012.06
2017-01-05T07:41:18.591Z,1012.04
2017-01-05T07:41:59.178Z,1012.01
2017-01-05T07:42:39.757Z,1011.98
2017-01-05T07:43:20.339Z,1012.03
2017-01-05T07:44:00.920Z,1012.03
2017-01-05T07:44:41.507Z,1011.98
2017-01-05T07:45:22.127Z,1012.03
2017-01-05T07:46:02.713Z,1012.06
2017-01-05T07:46:43.291Z,1012.02
2017-01-05T07:47:23.880Z,1012.04
2017-01-05T07:48:04.471Z,1012.08
2017-01-05T07:48:45.075Z,1012.11
2017-01-05T07:49:25.681Z,1012.06
2017-01-05T07:50:06.279Z,1012.04
2017-01-05T07:50:47.746Z,1012.05
2017-01-05T07:51:27.443Z,1012.02
2017-01-05T07:52:08.042Z,1012.03
2017-01-05T07:52:48.628Z,1012.04
2017-01-05T07:53:29.218Z,1012.05
2017-01-05T07:54:09.810Z,1012.04
2017-01-05T07:54:50.407Z,1012.09
2017-01-05T07:55:31.006Z,1012.1
2017-01-05T07:56:11.598Z,1012.12
2017-01-05T07:56:52.206Z,1012.11
2017-01-05T07:57:32.794Z,1012.09
2017-01-05T07:58:13.380Z,1012.07
2017-01-05T07:58:53.966Z,1012.1
2017-01-05T07:59:34.557Z,1012.13
2017-01-05T08:00:15.162Z,1012.13
2017-01-05T08:00:55.756Z,1012.15
2017-01-05T08:01:36.351Z,1012.15
2017-01-05T08:02:16.929Z,1012.16
2017-01-05T08:02:57.522Z,1012.22
2017-01-05T08:03:38.121Z,1012.2
2017-01-05T08:04:18.739Z,1012.23
2017-01-05T08:04:59.319Z,1012.21
2017-01-05T08:05:39.939Z,1012.23
2017-01-05T08:06:20.535Z,1012.23
2017-01-05T08:07:01.131Z,1012.22
2017-01-05T08:07:41.724Z,1012.2
2017-01-05T08:08:22.302Z,1012.24
2017-01-05T08:09:02.896Z,1012.23
2017-01-05T08:09:43.485Z,1012.27
2017-01-05T08:10:24.083Z,1012.33
2017-01-05T08:11:04.678Z,1012.31
2017-01-05T08:11:45.286Z,1012.3
2017-01-05T08:12:25.873Z,1012.29
2017-01-05T08:13:06.460Z,1012.32
2017-01-05T08:13:47.038Z,1012.3
2017-01-05T08:14:27.613Z,1012.34